Time;durP1;ratioP1;P1;durP2;ratioP2;P2;SDS_P1;SDS_P2;PMS_P1;PMS_P2;Temp;Humidity;BMP_temperature;BMP_pressure;BME280_temperature;BME280_humidity;BME280_pressure;Samples;Min_cycle;Max_cycle;Signal;HPM_P1;HPM_P2
2024/04/03 00:00:26;;;;;;;10.27;3.58;;;;;;;5.62;59.99;100622.13;5008260;28;20498;-71
2024/04/03 00:02:52;;;;;;;8.50;4.20;;;;;;;5.67;60.28;100608.13;5007984;28;20055;-71
2024/04/03 00:05:17;;;;;;;6.85;3.83;;;;;;;5.77;59.74;100605.31;5008011;28;20125;-71
2024/04/03 00:07:43;;;;;;;7.82;3.72;;;;;;;5.69;59.60;100609.88;5006364;28;20182;-71
2024/04/03 00:10:09;;;;;;;3.80;2.35;;;;;;;5.62;59.91;100607.41;5010054;28;20363;-72
2024/04/03 00:12:34;;;;;;;7.35;3.25;;;;;;;5.55;60.09;100603.25;5011626;28;20048;-72
2024/04/03 00:15:00;;;;;;;7.82;3.15;;;;;;;5.62;59.96;100607.41;5007800;28;20715;-71
2024/04/03 00:17:25;;;;;;;11.40;3.17;;;;;;;5.59;59.99;100617.88;5009254;28;20115;-68
2024/04/03 00:19:51;;;;;;;12.55;3.25;;;;;;;5.65;59.83;100609.91;5008287;28;20045;-69
2024/04/03 00:22:16;;;;;;;9.50;3.85;;;;;;;5.73;59.98;100614.09;5002340;28;20124;-70
2024/04/03 00:24:41;;;;;;;9.95;3.30;;;;;;;5.80;59.50;100618.22;5009663;28;20040;-70
2024/04/03 00:27:07;;;;;;;8.20;2.67;;;;;;;5.61;59.69;100613.50;5011580;28;20029;-70
2024/04/03 00:29:33;;;;;;;9.55;3.20;;;;;;;5.55;59.76;100612.78;5017169;28;20029;-70
2024/04/03 00:31:58;;;;;;;8.40;3.30;;;;;;;5.51;59.86;100603.38;5006186;28;21654;-69
2024/04/03 00:34:24;;;;;;;13.70;4.07;;;;;;;5.49;60.09;100605.13;5013279;28;20033;-69
2024/04/03 00:36:49;;;;;;;7.18;2.60;;;;;;;5.55;59.85;100600.66;5008312;28;20037;-70
2024/04/03 00:39:14;;;;;;;7.90;3.10;;;;;;;5.47;59.91;100602.56;5011318;28;20525;-68
2024/04/03 00:41:40;;;;;;;10.50;3.17;;;;;;;5.61;59.78;100613.50;5012489;28;20044;-73
2024/04/03 00:44:05;;;;;;;7.22;2.72;;;;;;;5.69;59.86;100609.88;5012214;28;20049;-74
2024/04/03 00:46:31;;;;;;;6.53;3.20;;;;;;;5.74;59.65;100610.59;5015501;28;20095;-75
2024/04/03 00:48:57;;;;;;;6.88;3.20;;;;;;;5.74;59.30;100610.59;5009765;28;20036;-74
2024/04/03 00:51:23;;;;;;;9.48;3.15;;;;;;;5.52;59.34;100611.09;5014248;28;20036;-74
2024/04/03 00:53:49;;;;;;;3.55;2.22;;;;;;;5.68;59.26;100611.56;5007656;28;20151;-73
2024/04/03 00:56:15;;;;;;;5.28;1.75;;;;;;;5.61;58.93;100604.84;5029081;28;20067;-74
2024/04/03 00:58:41;;;;;;;7.13;1.80;;;;;;;5.65;59.32;100596.94;5010807;28;20667;-73
2024/04/03 01:01:07;;;;;;;5.13;2.22;;;;;;;5.66;59.06;100601.25;5017698;28;20041;-73
2024/04/03 01:03:32;;;;;;;5.82;2.15;;;;;;;5.72;59.29;100600.25;5010650;28;20151;-74
2024/04/03 01:06:08;;;;;;;6.70;2.30;;;;;;;5.73;58.84;100604.56;5010193;28;20037;-74
2024/04/03 01:08:34;;;;;;;3.25;1.73;;;;;;;5.75;58.98;100607.97;5009454;28;20041;-73
2024/04/03 01:11:00;;;;;;;4.18;1.88;;;;;;;5.69;58.96;100607.25;4996238;28;20029;-73
2024/04/03 01:13:26;;;;;;;5.90;2.40;;;;;;;5.72;59.09;100607.19;5013737;28;20071;-74
2024/04/03 01:16:01;;;;;;;5.53;2.30;;;;;;;5.62;58.71;100607.41;5004776;28;20295;-74
2024/04/03 01:18:29;;;;;;;5.53;2.40;;;;;;;5.69;58.81;100602.94;5011530;28;20041;-73
2024/04/03 01:20:55;;;;;;;6.80;2.72;;;;;;;5.75;59.05;100596.72;5011017;28;20491;-74
2024/04/03 01:23:22;;;;;;;5.18;2.10;;;;;;;5.75;59.02;100596.72;5012761;28;20044;-74
2024/04/03 01:25:48;;;;;;;6.60;1.98;;;;;;;5.76;58.70;100593.25;5009113;28;20482;-73
2024/04/03 01:28:15;;;;;;;7.35;2.55;;;;;;;5.77;58.81;100589.75;5014924;28;20037;-74
2024/04/03 01:30:40;;;;;;;5.75;2.08;;;;;;;5.79;58.66;100587.97;5013714;28;20045;-70
2024/04/03 01:33:06;;;;;;;5.55;1.98;;;;;;;5.75;58.55;100586.34;5024429;28;20028;-70
2024/04/03 01:35:32;;;;;;;5.15;2.53;;;;;;;5.72;58.67;100583.84;5009134;28;20024;-70
2024/04/03 01:37:58;;;;;;;5.05;2.28;;;;;;;5.69;58.81;100587.38;5011165;28;20041;-69
2024/04/03 01:40:25;;;;;;;5.53;2.83;;;;;;;5.74;58.77;100587.25;5012466;28;20972;-69
2024/04/03 01:42:51;;;;;;;6.90;2.65;;;;;;;5.75;58.75;100583.75;5006865;28;20045;-72
2024/04/03 01:45:17;;;;;;;5.28;2.45;;;;;;;5.75;58.40;100581.16;5010813;28;20051;-72
2024/04/03 01:47:46;;;;;;;4.63;1.77;;;;;;;5.72;59.02;100578.66;5015573;28;20537;-71
2024/04/03 01:50:13;;;;;;;3.50;2.33;;;;;;;5.78;58.66;100578.50;5014640;28;20039;-71
2024/04/03 01:52:39;;;;;;;4.97;1.70;;;;;;;5.68;58.45;100575.28;5011777;28;20276;-71
2024/04/03 01:55:04;;;;;;;6.95;2.10;;;;;;;5.69;58.59;100576.16;5016930;28;21565;-71
2024/04/03 01:57:30;;;;;;;7.63;2.05;;;;;;;5.55;58.88;100572.16;5040442;28;20256;-69
2024/04/03 01:59:56;;;;;;;9.85;3.17;;;;;;;5.43;58.45;100565.50;5039776;28;20033;-69
2024/04/03 02:02:21;;;;;;;3.80;2.58;;;;;;;5.29;58.80;100567.56;5039794;28;20040;-69
2024/04/03 02:04:49;;;;;;;3.92;1.73;;;;;;;5.30;59.09;100565.81;5039065;28;20029;-69
2024/04/03 02:07:14;;;;;;;5.82;1.90;;;;;;;5.27;59.01;100569.34;5038323;28;20051;-68
2024/04/03 02:09:41;;;;;;;6.10;2.40;;;;;;;5.26;59.08;100580.59;5015500;28;20076;-68
2024/04/03 02:12:07;;;;;;;3.10;1.63;;;;;;;5.26;59.10;100580.59;5007967;28;21057;-68
2024/04/03 02:14:33;;;;;;;7.20;1.67;;;;;;;5.34;58.67;100568.31;5013061;28;20502;-68
2024/04/03 02:16:58;;;;;;;4.57;1.83;;;;;;;5.20;59.40;100560.84;5006923;28;20227;-68
2024/04/03 02:19:24;;;;;;;6.50;1.50;;;;;;;5.21;59.44;100566.88;5012331;28;20581;-68
2024/04/03 02:21:49;;;;;;;5.32;1.75;;;;;;;5.34;58.91;100570.91;5007704;28;20032;-69
2024/04/03 02:24:15;;;;;;;6.30;2.15;;;;;;;5.48;59.00;100572.31;5013697;28;20083;-68
2024/04/03 02:26:41;;;;;;;3.65;1.45;;;;;;;5.42;58.83;100570.72;5011609;28;20517;-69
2024/04/03 02:29:06;;;;;;;5.28;1.80;;;;;;;5.37;58.18;100575.16;5007207;28;20060;-69
2024/04/03 02:31:32;;;;;;;3.92;1.95;;;;;;;5.19;58.94;100564.34;5012703;28;20087;-70
2024/04/03 02:33:57;;;;;;;5.35;2.03;;;;;;;5.23;59.05;100571.16;5005165;28;20132;-70
2024/04/03 02:36:22;;;;;;;3.72;2.13;;;;;;;5.16;58.65;100569.56;5012332;28;20449;-71
2024/04/03 02:38:48;;;;;;;3.92;1.40;;;;;;;5.21;58.85;100559.09;5009324;28;20123;-71
2024/04/03 02:41:15;;;;;;;5.55;2.08;;;;;;;5.29;59.05;100564.97;5014296;28;20429;-71
2024/04/03 02:43:40;;;;;;;9.18;1.92;;;;;;;5.36;58.74;100568.28;5008207;28;20048;-71
2024/04/03 02:46:06;;;;;;;6.40;2.13;;;;;;;5.42;58.85;100570.72;5025838;28;20041;-71
2024/04/03 02:48:31;;;;;;;7.95;1.75;;;;;;;5.47;58.33;100571.47;5009165;28;20033;-71
2024/04/03 02:51:03;;;;;;;4.60;1.52;;;;;;;5.39;58.67;100563.00;5023687;28;20044;-70
2024/04/03 02:53:29;;;;;;;4.63;2.65;;;;;;;5.44;58.58;100568.97;5022118;28;20079;-71
2024/04/03 02:55:58;;;;;;;6.45;1.83;;;;;;;5.42;58.55;100561.22;5008197;28;20037;-71
2024/04/03 02:58:24;;;;;;;3.58;1.95;;;;;;;5.38;58.75;100556.13;5030099;28;20072;-71
2024/04/03 03:01:04;;;;;;;6.22;2.08;;;;;;;5.39;58.71;100555.22;5022405;28;20089;-70
2024/04/03 03:03:30;;;;;;;6.07;1.90;;;;;;;5.32;58.75;100551.94;5023542;28;20094;-74
2024/04/03 03:05:57;;;;;;;3.55;2.40;;;;;;;5.38;58.78;100553.53;5009707;28;20036;-70
2024/04/03 03:08:24;;;;;;;6.13;2.75;;;;;;;5.32;58.55;100551.94;5009838;28;20036;-69
2024/04/03 03:10:50;;;;;;;5.97;2.47;;;;;;;5.37;58.99;100554.41;5008687;28;20029;-70
2024/04/03 03:13:15;;;;;;;6.75;2.38;;;;;;;5.27;58.61;100552.94;5008378;28;20044;-71
2024/04/03 03:15:41;;;;;;;2.65;1.65;;;;;;;5.23;58.92;100552.16;5009349;28;20040;-72
2024/04/03 03:18:06;;;;;;;3.88;2.38;;;;;;;5.29;58.63;100557.19;5006859;28;20049;-73
2024/04/03 03:20:32;;;;;;;4.40;2.22;;;;;;;5.21;58.76;100554.78;5011136;28;20928;-73
2024/04/03 03:22:57;;;;;;;3.92;2.17;;;;;;;5.17;58.80;100557.50;5008968;28;20642;-73
2024/04/03 03:25:22;;;;;;;3.55;2.38;;;;;;;5.20;58.76;100547.91;5012793;28;20020;-72
2024/04/03 03:27:48;;;;;;;3.60;2.38;;;;;;;5.30;58.77;100545.09;5011401;28;20815;-69
2024/04/03 03:30:13;;;;;;;4.32;2.50;;;;;;;5.35;58.66;100540.66;5006228;28;20142;-69
2024/04/03 03:32:39;;;;;;;9.98;2.30;;;;;;;5.47;58.60;100540.38;4990890;28;20170;-71
2024/04/03 03:35:05;;;;;;;5.22;1.65;;;;;;;5.50;58.60;100544.63;5007032;28;20045;-72
2024/04/03 03:37:30;;;;;;;4.22;2.28;;;;;;;5.52;58.28;100537.66;5009114;28;20045;-71
2024/04/03 03:39:57;;;;;;;4.75;2.22;;;;;;;5.48;58.10;100546.38;5008316;28;20040;-71
2024/04/03 03:42:22;;;;;;;3.92;2.00;;;;;;;5.46;58.30;100542.09;5011956;28;20434;-71
2024/04/03 03:44:49;;;;;;;2.78;1.65;;;;;;;5.49;58.33;100543.78;5011424;28;20037;-75
2024/04/03 03:47:15;;;;;;;4.20;1.63;;;;;;;5.50;58.61;100549.81;5006810;28;20105;-75
2024/04/03 03:52:37;;;;;;;1.70;1.13;;;;;;;5.32;58.45;100541.56;5012347;28;20175;-77
2024/04/03 03:55:03;;;;;;;4.55;1.95;;;;;;;5.31;57.98;100536.44;5010516;28;20037;-72
2024/04/03 03:57:32;;;;;;;2.92;1.40;;;;;;;5.18;58.34;100544.47;5010668;28;20112;-75
2024/04/03 03:59:58;;;;;;;3.70;1.73;;;;;;;5.19;58.49;100535.84;5028263;28;20160;-73
2024/04/03 04:02:24;;;;;;;4.15;1.70;;;;;;;5.13;58.45;100540.31;4998311;28;20839;-73
2024/04/03 04:04:51;;;;;;;4.60;1.85;;;;;;;5.14;58.39;100537.66;5014488;28;20029;-72
2024/04/03 04:07:20;;;;;;;4.43;1.38;;;;;;;5.16;58.53;100533.31;5009990;28;20052;-72
2024/04/03 04:09:52;;;;;;;4.38;1.42;;;;;;;5.14;58.84;100532.47;5016134;28;20100;-75
2024/04/03 04:12:19;;;;;;;5.13;2.53;;;;;;;5.08;58.69;100527.47;5009362;28;20032;-71
2024/04/03 04:14:49;;;;;;;10.77;2.65;;;;;;;5.04;59.17;100531.00;5012168;28;20048;-71
2024/04/03 04:17:16;;;;;;;6.28;2.15;;;;;;;5.23;58.59;100524.53;5006156;28;21198;-71
2024/04/03 04:19:41;;;;;;;4.55;2.33;;;;;;;5.26;58.36;100533.97;5016748;28;20037;-72
2024/04/03 04:22:07;;;;;;;6.85;2.35;;;;;;;5.30;58.25;100535.59;5008586;28;20076;-71
2024/04/03 04:24:36;;;;;;;4.68;2.20;;;;;;;5.14;58.54;100529.03;5017017;28;20028;-70
2024/04/03 04:27:04;;;;;;;6.18;2.55;;;;;;;5.12;58.39;100534.25;5002246;28;20033;-68
2024/04/03 04:29:31;;;;;;;5.90;2.20;;;;;;;5.21;58.46;100535.78;5032893;28;20037;-69
2024/04/03 04:32:00;;;;;;;5.38;2.15;;;;;;;5.23;58.62;100532.28;5004409;28;20044;-71
2024/04/03 04:34:26;;;;;;;4.97;2.22;;;;;;;5.24;58.81;100533.97;5031168;28;20086;-69
2024/04/03 04:36:52;;;;;;;8.25;2.88;;;;;;;5.31;58.60;100528.66;5009981;28;20036;-70
2024/04/03 04:39:18;;;;;;;6.13;2.35;;;;;;;5.15;58.74;100531.59;5011003;28;20044;-71
2024/04/03 04:41:43;;;;;;;5.15;3.17;;;;;;;5.21;58.67;100528.88;4999803;28;20033;-72
2024/04/03 04:44:08;;;;;;;5.00;2.70;;;;;;;5.24;58.71;100538.31;5009077;28;20041;-72
2024/04/03 04:46:34;;;;;;;8.48;3.05;;;;;;;5.19;58.67;100535.84;5016907;28;20175;-70
2024/04/03 04:49:00;;;;;;;6.35;2.80;;;;;;;5.20;58.49;100541.88;5007252;28;20633;-70
2024/04/03 04:51:26;;;;;;;4.32;2.45;;;;;;;5.20;58.35;100540.13;5017562;28;20037;-70
2024/04/03 04:53:51;;;;;;;5.47;3.15;;;;;;;5.12;58.88;100542.03;5011115;28;20185;-69
2024/04/03 04:56:16;;;;;;;4.72;2.30;;;;;;;5.01;58.96;100531.06;5011233;28;20616;-68
2024/04/03 04:58:42;;;;;;;9.65;1.98;;;;;;;4.87;59.31;100528.75;5009804;28;20068;-69
2024/04/03 05:01:09;;;;;;;5.72;2.70;;;;;;;5.04;58.88;100541.38;5011316;28;20736;-70
2024/04/03 05:03:36;;;;;;;3.13;1.55;;;;;;;5.11;58.85;100529.97;5015313;28;20570;-69
2024/04/03 05:06:02;;;;;;;6.43;2.40;;;;;;;5.11;59.03;100529.97;5009494;28;20558;-71
2024/04/03 05:08:29;;;;;;;4.32;1.92;;;;;;;5.12;58.80;100525.63;5012341;28;20063;-69
2024/04/03 05:10:59;;;;;;;7.88;2.13;;;;;;;5.10;59.03;100525.69;5013163;28;20155;-73
2024/04/03 05:13:29;;;;;;;6.20;2.10;;;;;;;5.08;59.15;100521.41;5014868;28;20033;-68
2024/04/03 05:15:56;;;;;;;2.40;1.85;;;;;;;4.99;59.19;100520.75;5013348;28;20047;-70
2024/04/03 05:18:22;;;;;;;5.47;2.45;;;;;;;5.01;58.87;100523.28;5009984;28;20605;-71
2024/04/03 05:20:47;;;;;;;5.07;2.13;;;;;;;5.08;59.21;100519.69;5012267;28;20440;-75
2024/04/03 05:23:13;;;;;;;4.63;2.75;;;;;;;5.08;59.29;100519.69;5010215;28;20053;-71
2024/04/03 05:25:39;;;;;;;4.50;2.53;;;;;;;5.12;59.38;100513.53;4994916;28;20028;-73
2024/04/03 05:28:07;;;;;;;4.88;2.63;;;;;;;4.99;59.40;100510.38;5008789;28;20191;-70
2024/04/03 05:30:37;;;;;;;4.85;3.42;;;;;;;4.82;59.64;100508.13;5008748;28;20041;-68
2024/04/03 05:33:03;;;;;;;5.35;2.83;;;;;;;4.94;59.36;100508.78;5006208;28;20236;-68
2024/04/03 05:35:28;;;;;;;4.90;2.90;;;;;;;5.04;59.45;100515.47;5011161;28;20552;-68
2024/04/03 05:37:54;;;;;;;8.10;2.60;;;;;;;5.01;59.49;100511.19;5012657;28;20048;-69
2024/04/03 05:40:19;;;;;;;9.00;2.78;;;;;;;4.92;59.87;100506.25;5012052;28;20041;-67
2024/04/03 05:42:45;;;;;;;3.95;2.72;;;;;;;4.87;59.88;100507.19;5025323;28;20053;-69
2024/04/03 05:45:11;;;;;;;3.55;2.65;;;;;;;4.77;59.95;100507.38;5006727;28;20039;-68
2024/04/03 05:47:36;;;;;;;7.22;2.85;;;;;;;4.79;60.11;100510.78;5015398;28;20132;-68
2024/04/03 05:50:09;;;;;;;4.65;2.38;;;;;;;4.75;60.50;100519.50;5011083;28;20247;-68
2024/04/03 05:52:36;;;;;;;3.92;2.47;;;;;;;4.87;60.11;100507.19;5013899;28;20570;-69
2024/04/03 05:55:02;;;;;;;3.35;1.70;;;;;;;4.99;59.90;100512.13;5012484;28;21431;-68
2024/04/03 05:57:28;;;;;;;6.93;2.30;;;;;;;4.95;60.13;100508.75;5007329;28;20189;-71
2024/04/03 05:59:53;;;;;;;2.67;1.58;;;;;;;4.89;60.24;100514.06;5013965;28;20418;-71
2024/04/03 06:02:19;;;;;;;3.33;2.10;;;;;;;4.98;59.73;100521.63;5006566;28;20048;-72
2024/04/03 06:04:44;;;;;;;2.72;1.80;;;;;;;4.87;60.13;100505.44;5011552;28;20029;-72
2024/04/03 06:07:10;;;;;;;6.97;2.38;;;;;;;4.99;59.96;100512.13;5001209;28;20078;-71
2024/04/03 06:09:35;;;;;;;2.45;1.55;;;;;;;4.97;59.62;100508.72;5014717;28;20120;-72
2024/04/03 06:12:01;;;;;;;7.03;2.28;;;;;;;4.96;60.21;100502.66;5008988;28;20091;-71
2024/04/03 06:14:26;;;;;;;4.05;2.00;;;;;;;4.99;59.52;100517.31;5008109;28;20053;-71
2024/04/03 06:16:52;;;;;;;6.05;1.50;;;;;;;4.91;60.08;100514.88;5007983;28;20037;-70
2024/04/03 06:19:17;;;;;;;6.25;1.65;;;;;;;4.95;60.21;100511.34;5003287;28;20127;-67
2024/04/03 06:21:43;;;;;;;2.55;1.33;;;;;;;4.74;60.47;100510.00;5012894;28;20547;-68
2024/04/03 06:24:08;;;;;;;5.25;2.13;;;;;;;4.90;60.39;100501.94;4999577;28;20636;-68
2024/04/03 06:26:35;;;;;;;5.15;2.00;;;;;;;4.87;60.28;100505.44;5011712;28;20032;-68
2024/04/03 06:29:01;;;;;;;3.30;2.45;;;;;;;4.85;60.52;100504.59;4998151;28;20037;-67
2024/04/03 06:31:27;;;;;;;6.47;2.00;;;;;;;4.76;60.62;100500.47;5007899;28;20041;-67
2024/04/03 06:33:56;;;;;;;6.22;2.08;;;;;;;4.87;60.45;100510.59;5015284;28;20051;-68
2024/04/03 06:36:23;;;;;;;4.22;2.90;;;;;;;5.02;60.23;100496.50;5014146;28;20033;-69
2024/04/03 06:38:48;;;;;;;6.13;2.35;;;;;;;5.02;60.40;100496.50;5011550;28;20621;-70
2024/04/03 06:41:14;;;;;;;6.85;2.70;;;;;;;4.98;60.57;100497.47;5007333;28;20139;-74
2024/04/03 06:43:40;;;;;;;12.40;3.38;;;;;;;4.81;60.96;100497.78;5006845;28;20041;-66
2024/04/03 06:46:05;;;;;;;7.38;3.05;;;;;;;4.62;61.16;100495.59;5009566;28;20147;-68
2024/04/03 06:48:32;;;;;;;8.15;4.30;;;;;;;4.96;60.92;100496.63;5006507;28;20242;-69
2024/04/03 06:50:57;;;;;;;7.30;3.63;;;;;;;5.12;60.56;100482.44;5011304;28;20032;-69
2024/04/03 06:53:23;;;;;;;8.75;3.85;;;;;;;5.11;60.58;100485.94;5005315;28;20094;-67
2024/04/03 06:55:59;;;;;;;9.43;4.38;;;;;;;4.83;60.72;100483.94;5013286;28;20617;-67
2024/04/03 06:58:26;;;;;;;8.40;4.30;;;;;;;4.69;61.13;100485.97;5008569;28;20144;-67
2024/04/03 07:00:52;;;;;;;8.10;3.58;;;;;;;4.70;60.87;100487.69;5010901;28;20102;-67
2024/04/03 07:03:17;;;;;;;8.40;4.45;;;;;;;4.65;61.29;100492.09;5003849;28;20100;-67
2024/04/03 07:05:46;;;;;;;7.95;4.03;;;;;;;4.74;60.91;100491.88;5010147;28;20080;-67
2024/04/03 07:08:12;;;;;;;7.78;3.67;;;;;;;4.77;61.20;100491.84;5003954;28;20310;-67
2024/04/03 07:10:38;;;;;;;8.50;3.30;;;;;;;4.75;60.83;100488.44;5009988;28;20812;-68
2024/04/03 07:13:04;;;;;;;14.57;4.05;;;;;;;4.75;61.23;100488.44;5009316;28;20040;-67
2024/04/03 07:15:32;;;;;;;11.18;3.70;;;;;;;4.91;60.81;100485.53;5004147;28;20304;-67
2024/04/03 07:18:01;;;;;;;8.25;4.40;;;;;;;4.83;61.21;100490.84;5007987;28;20103;-67
2024/04/03 07:20:30;;;;;;;6.13;2.70;;;;;;;4.81;61.11;100488.31;5000947;28;20037;-67
2024/04/03 07:22:57;;;;;;;7.63;3.20;;;;;;;4.88;60.97;100486.47;5010155;28;20044;-68
2024/04/03 07:25:24;;;;;;;5.57;2.65;;;;;;;5.02;60.71;100493.91;5002098;28;20167;-67
2024/04/03 07:27:50;;;;;;;12.35;3.13;;;;;;;4.88;60.76;100489.06;5028450;28;20482;-67
2024/04/03 07:30:17;;;;;;;4.45;2.38;;;;;;;4.86;60.96;100492.53;5001627;28;20116;-67
2024/04/03 07:32:42;;;;;;;6.45;2.95;;;;;;;4.94;60.98;100488.06;5022787;28;20056;-71
2024/04/03 07:35:08;;;;;;;5.40;2.97;;;;;;;4.84;60.98;100485.63;5011636;28;20032;-67
2024/04/03 07:37:38;;;;;;;8.35;2.72;;;;;;;4.81;61.20;100483.13;5009050;28;20047;-68
2024/04/03 07:40:09;;;;;;;7.65;3.58;;;;;;;4.98;60.90;100489.69;5013958;28;20060;-68
2024/04/03 07:42:41;;;;;;;5.82;3.13;;;;;;;5.00;60.86;100482.75;5009638;28;20037;-69
2024/04/03 07:45:08;;;;;;;5.40;3.45;;;;;;;5.06;61.37;100482.59;5011954;28;20665;-69
2024/04/03 07:47:35;;;;;;;8.95;4.43;;;;;;;5.13;60.95;100480.72;5009132;28;20555;-68
2024/04/03 07:50:01;;;;;;;6.35;3.58;;;;;;;5.18;60.77;100474.53;5015821;28;20397;-68
2024/04/03 07:52:27;;;;;;;10.45;5.53;;;;;;;5.22;60.90;100481.34;5003131;28;20240;-67
2024/04/03 07:54:52;;;;;;;10.32;4.80;;;;;;;5.29;60.80;100479.47;5030019;28;20036;-68
2024/04/03 07:57:18;;;;;;;14.57;5.25;;;;;;;5.29;61.17;100476.88;5003112;28;20041;-68
2024/04/03 07:59:46;;;;;;;15.20;5.65;;;;;;;5.39;60.68;100480.06;5015725;28;20036;-68
2024/04/03 08:02:11;;;;;;;10.30;5.22;;;;;;;5.31;61.04;100469.06;5008169;28;20790;-69
2024/04/03 08:04:37;;;;;;;9.90;4.97;;;;;;;5.35;60.94;100474.13;4995919;28;20052;-68
2024/04/03 08:07:03;;;;;;;15.65;5.78;;;;;;;5.45;60.86;100477.34;5010081;28;20043;-70
2024/04/03 08:09:32;;;;;;;9.85;6.30;;;;;;;5.23;61.46;100477.88;5010151;28;20143;-68
2024/04/03 08:12:00;;;;;;;11.20;5.28;;;;;;;5.05;62.21;100470.53;5010805;28;20041;-68
2024/04/03 08:14:25;;;;;;;8.20;5.03;;;;;;;5.24;61.76;100476.13;5008696;28;20074;-68
2024/04/03 08:16:54;;;;;;;8.13;4.95;;;;;;;5.35;62.01;100478.47;5014464;28;20487;-68
2024/04/03 08:19:20;;;;;;;15.23;5.65;;;;;;;5.35;61.96;100478.47;5009515;28;20113;-69
2024/04/03 08:21:48;;;;;;;9.30;5.07;;;;;;;5.47;61.49;100478.16;5019969;28;20261;-68
2024/04/03 08:24:14;;;;;;;10.40;5.15;;;;;;;5.67;61.44;100477.66;5008301;28;20154;-68
2024/04/03 08:26:40;;;;;;;8.32;5.65;;;;;;;5.45;61.84;100477.34;4997734;28;20040;-68
2024/04/03 08:29:06;;;;;;;11.02;5.35;;;;;;;5.38;62.06;100471.44;5000240;28;20068;-69
2024/04/03 08:31:32;;;;;;;8.55;4.97;;;;;;;5.38;62.01;100471.44;5009825;28;20068;-68
2024/04/03 08:34:00;;;;;;;8.25;5.10;;;;;;;5.54;62.15;100466.72;5012431;28;20505;-68
2024/04/03 08:36:26;;;;;;;8.10;4.70;;;;;;;5.60;61.91;100468.34;5012222;28;20281;-67
2024/04/03 08:38:52;;;;;;;8.43;4.65;;;;;;;5.56;62.02;100472.72;5013955;28;20052;-68
2024/04/03 08:41:17;;;;;;;9.40;4.05;;;;;;;5.68;61.81;100466.38;5009497;28;20037;-68
2024/04/03 08:43:43;;;;;;;7.68;4.45;;;;;;;5.92;61.69;100466.63;5016281;28;20512;-68
2024/04/03 08:46:09;;;;;;;13.25;4.75;;;;;;;6.08;61.16;100470.50;5011405;28;20051;-69
2024/04/03 08:48:38;;;;;;;8.82;4.70;;;;;;;5.89;61.33;100467.56;5011691;28;20809;-70
2024/04/03 08:51:05;;;;;;;7.28;4.32;;;;;;;6.03;61.36;100467.19;5016437;28;20021;-68
2024/04/03 08:53:31;;;;;;;9.82;4.88;;;;;;;6.00;61.46;100469.88;5009355;28;20039;-68
2024/04/03 08:55:56;;;;;;;6.68;4.07;;;;;;;5.93;61.48;100466.59;5013794;28;20041;-68
2024/04/03 08:58:22;;;;;;;12.23;5.25;;;;;;;6.09;61.39;100467.84;5010607;28;20053;-68
2024/04/03 09:00:49;;;;;;;15.95;4.18;;;;;;;6.04;61.68;100464.56;5013426;28;20659;-68
2024/04/03 09:03:15;;;;;;;7.25;4.20;;;;;;;6.28;61.10;100464.78;5010653;28;20065;-68
2024/04/03 09:05:41;;;;;;;10.95;4.07;;;;;;;6.08;61.22;100467.91;5011798;28;20044;-69
2024/04/03 09:08:09;;;;;;;9.20;4.15;;;;;;;6.19;61.34;100462.41;4994854;28;20037;-67
2024/04/03 09:10:43;;;;;;;13.25;5.18;;;;;;;6.16;61.56;100465.94;5005658;28;20471;-68
2024/04/03 09:13:10;;;;;;;8.23;3.90;;;;;;;6.10;61.56;100463.50;5040883;28;20139;-69
2024/04/03 09:15:36;;;;;;;8.70;4.95;;;;;;;6.09;61.80;100457.47;5016981;28;20022;-70
2024/04/03 09:18:06;;;;;;;8.68;4.90;;;;;;;6.33;61.28;100460.31;5043132;28;20067;-68
2024/04/03 09:20:33;;;;;;;12.88;5.18;;;;;;;6.12;61.85;100459.13;5032496;28;20068;-68
2024/04/03 09:22:59;;;;;;;9.13;5.65;;;;;;;6.22;61.73;100459.75;5039599;28;20059;-68
2024/04/03 09:25:29;;;;;;;10.05;4.78;;;;;;;6.20;62.07;100454.59;5023896;28;20480;-68
2024/04/03 09:28:05;;;;;;;10.23;4.53;;;;;;;6.09;62.16;100444.50;5017068;28;20525;-68
2024/04/03 09:30:33;;;;;;;10.02;5.18;;;;;;;6.10;62.24;100453.13;5013647;28;20048;-68
2024/04/03 09:33:07;;;;;;;9.73;4.53;;;;;;;6.31;62.01;100456.91;5015843;28;20040;-68
2024/04/03 09:35:41;;;;;;;8.40;4.43;;;;;;;6.33;61.70;100455.13;5003344;28;20095;-68
2024/04/03 09:38:06;;;;;;;9.55;4.22;;;;;;;6.27;61.60;100453.50;5013186;28;20045;-69
2024/04/03 09:40:37;;;;;;;6.40;3.90;;;;;;;6.15;61.89;100450.41;5004683;28;20045;-68
2024/04/03 09:43:02;;;;;;;8.25;3.63;;;;;;;6.17;61.88;100457.28;5014115;28;20045;-69
2024/04/03 09:45:29;;;;;;;8.10;4.15;;;;;;;6.24;62.16;100453.63;5005709;28;20064;-69
2024/04/03 09:47:59;;;;;;;6.70;3.65;;;;;;;6.33;61.89;100455.13;5014181;28;20053;-68
2024/04/03 09:50:42;;;;;;;6.40;3.58;;;;;;;6.35;61.78;100453.34;4990826;28;20351;-68
2024/04/03 09:53:12;;;;;;;7.55;3.63;;;;;;;6.15;62.08;100446.09;5013754;28;20079;-68
2024/04/03 09:55:38;;;;;;;10.85;4.10;;;;;;;6.27;62.20;100450.06;5003239;28;20198;-69
2024/04/03 09:58:11;;;;;;;5.28;2.92;;;;;;;6.47;61.91;100447.78;5010711;28;20052;-67
2024/04/03 10:00:37;;;;;;;5.95;3.63;;;;;;;6.49;61.87;100445.16;5022344;28;20100;-67
2024/04/03 10:03:04;;;;;;;5.53;2.88;;;;;;;6.59;61.63;100446.56;4997226;28;20037;-68
2024/04/03 10:05:40;;;;;;;7.53;3.60;;;;;;;6.44;61.68;100434.91;5002369;28;20661;-68
2024/04/03 10:08:10;;;;;;;6.82;3.55;;;;;;;6.49;61.76;100435.59;5012893;28;20048;-68
2024/04/03 10:10:43;;;;;;;4.97;2.53;;;;;;;6.50;61.85;100431.25;5003766;28;20250;-68
2024/04/03 10:13:31;;;;;;;6.68;2.88;;;;;;;6.43;61.87;100440.97;5012872;28;20037;-68
2024/04/03 10:16:01;;;;;;;5.72;3.55;;;;;;;6.61;61.94;100436.13;5013782;28;20052;-67
2024/04/03 10:18:31;;;;;;;7.75;3.47;;;;;;;6.45;62.29;100434.00;5004650;28;20040;-68
2024/04/03 10:20:57;;;;;;;5.95;3.13;;;;;;;6.97;61.43;100435.88;5026709;28;20501;-69
2024/04/03 10:23:24;;;;;;;4.72;2.17;;;;;;;6.93;61.16;100439.47;5005859;28;20123;-69
2024/04/03 10:25:50;;;;;;;4.93;3.42;;;;;;;6.92;61.05;100436.03;5011577;28;20126;-68
2024/04/03 10:28:16;;;;;;;5.30;3.30;;;;;;;7.06;61.26;100431.22;5031954;28;20036;-68
2024/04/03 10:30:41;;;;;;;8.10;3.25;;;;;;;7.08;61.17;100434.63;5027066;28;20539;-68
2024/04/03 10:33:11;;;;;;;5.70;3.30;;;;;;;6.99;61.77;100434.91;5015972;28;20724;-68
2024/04/03 10:35:37;;;;;;;7.47;3.65;;;;;;;7.19;61.58;100426.47;5002586;28;20032;-68
2024/04/03 10:38:03;;;;;;;7.40;3.75;;;;;;;7.30;61.80;100429.56;5007751;28;20095;-68
2024/04/03 10:40:32;;;;;;;8.18;4.80;;;;;;;7.53;61.49;100423.63;5008360;28;20032;-68
2024/04/03 10:42:58;;;;;;;9.77;4.35;;;;;;;7.83;61.10;100420.03;5009065;28;20040;-68
2024/04/03 10:45:23;;;;;;;7.40;4.47;;;;;;;7.92;61.10;100417.09;4992101;28;20048;-69
2024/04/03 10:47:50;;;;;;;8.32;3.92;;;;;;;8.03;60.85;100420.16;5023261;28;20251;-68
2024/04/03 10:50:17;;;;;;;5.93;4.05;;;;;;;8.22;60.90;100415.09;5014151;28;20147;-68
2024/04/03 10:52:44;;;;;;;9.73;5.05;;;;;;;8.23;60.37;100411.59;4998401;28;20064;-68
2024/04/03 10:55:12;;;;;;;9.15;5.43;;;;;;;8.13;60.65;100407.63;5011982;28;20037;-68
2024/04/03 10:57:41;;;;;;;7.45;4.28;;;;;;;8.00;61.25;100407.22;5000228;28;20057;-68
2024/04/03 11:00:12;;;;;;;8.40;5.15;;;;;;;8.11;60.77;100406.84;5015253;28;20099;-68
2024/04/03 11:02:45;;;;;;;8.45;4.82;;;;;;;8.35;60.63;100405.06;5001732;28;20089;-69
2024/04/03 11:05:12;;;;;;;;;;;;;;;8.33;60.57;100393.88;5012603;28;20059;-69
2024/04/03 11:07:38;;;;;;;12.30;4.55;;;;;;;8.32;60.38;100397.38;5000227;28;20509;-68
2024/04/03 11:10:12;;;;;;;10.48;5.70;;;;;;;8.42;60.72;100397.88;5012291;28;20167;-68
2024/04/03 11:12:37;;;;;;;10.13;5.20;;;;;;;8.47;60.79;100402.00;5015168;28;22659;-68
2024/04/03 11:15:09;;;;;;;6.80;4.68;;;;;;;8.33;60.90;100399.06;5009669;28;20507;-68
2024/04/03 11:17:35;;;;;;;5.25;3.30;;;;;;;8.22;61.36;100390.81;5000311;28;20040;-68
2024/04/03 11:20:01;;;;;;;6.00;3.80;;;;;;;8.56;61.58;100387.75;5012900;28;20048;-68
2024/04/03 11:22:28;;;;;;;4.47;3.40;;;;;;;8.84;60.55;100387.53;5006614;28;20072;-69
2024/04/03 11:24:55;;;;;;;4.20;2.78;;;;;;;8.74;60.83;100387.06;5010905;28;20385;-69
2024/04/03 11:27:21;;;;;;;4.68;3.25;;;;;;;8.92;59.66;100382.03;5010142;28;20113;-68
2024/04/03 11:29:46;;;;;;;5.03;2.78;;;;;;;8.75;60.76;100383.53;5003755;28;20582;-67
2024/04/03 11:32:14;;;;;;;4.70;2.00;;;;;;;9.03;60.29;100377.22;5012904;28;20499;-68